sensor_id;sensor_type;location;lat;lon;timestamp;pressure;altitude;pressure_sealevel;temperature;humidity
82035;BME280;71599;49.892;18.914;2024-01-30T00:00:58;100545.38;;;-3.06;87.56
82035;BME280;71599;49.892;18.914;2024-01-30T00:06:21;100535.28;;;-3.04;87.14
82035;BME280;71599;49.892;18.914;2024-01-30T00:11:22;100538.47;;;-3.13;88.17
82035;BME280;71599;49.892;18.914;2024-01-30T00:16:23;100538.94;;;-3.16;88.18
82035;BME280;71599;49.892;18.914;2024-01-30T00:21:26;100536.84;;;-3.14;87.14
82035;BME280;71599;49.892;18.914;2024-01-30T00:26:27;100534.25;;;-3.21;88.15
82035;BME280;71599;49.892;18.914;2024-01-30T00:31:28;100536.13;;;-3.22;86.89
82035;BME280;71599;49.892;18.914;2024-01-30T00:36:30;100533.31;;;-3.27;86.01
82035;BME280;71599;49.892;18.914;2024-01-30T00:41:31;100531.00;;;-3.53;86.80
82035;BME280;71599;49.892;18.914;2024-01-30T00:46:33;100532.53;;;-3.64;88.35
82035;BME280;71599;49.892;18.914;2024-01-30T00:51:35;100531.78;;;-3.71;89.04
82035;BME280;71599;49.892;18.914;2024-01-30T00:56:36;100528.34;;;-3.71;90.17
82035;BME280;71599;49.892;18.914;2024-01-30T01:01:37;100511.53;;;-3.60;89.51
82035;BME280;71599;49.892;18.914;2024-01-30T01:06:39;100519.84;;;-3.50;89.37
82035;BME280;71599;49.892;18.914;2024-01-30T01:11:40;100517.16;;;-3.50;89.37
82035;BME280;71599;49.892;18.914;2024-01-30T01:16:41;100518.53;;;-3.59;89.17
82035;BME280;71599;49.892;18.914;2024-01-30T01:21:43;100511.53;;;-3.60;88.75
82035;BME280;71599;49.892;18.914;2024-01-30T01:26:44;100506.19;;;-3.60;88.12
82035;BME280;71599;49.892;18.914;2024-01-30T01:31:45;100505.16;;;-3.59;88.45
82035;BME280;71599;49.892;18.914;2024-01-30T01:36:47;100488.25;;;-3.71;89.08
82035;BME280;71599;49.892;18.914;2024-01-30T01:41:48;100491.06;;;-3.66;89.58
82035;BME280;71599;49.892;18.914;2024-01-30T01:46:49;100484.91;;;-3.67;89.90
82035;BME280;71599;49.892;18.914;2024-01-30T01:51:54;100475.94;;;-3.72;88.67
82035;BME280;71599;49.892;18.914;2024-01-30T01:56:56;100477.41;;;-3.76;88.01
82035;BME280;71599;49.892;18.914;2024-01-30T02:01:57;100488.56;;;-3.79;89.19
82035;BME280;71599;49.892;18.914;2024-01-30T02:06:59;100468.06;;;-3.85;90.08
82035;BME280;71599;49.892;18.914;2024-01-30T02:12:00;100464.03;;;-3.76;91.02
82035;BME280;71599;49.892;18.914;2024-01-30T02:17:01;100471.91;;;-3.81;91.12
82035;BME280;71599;49.892;18.914;2024-01-30T02:22:04;100476.91;;;-3.85;91.37
82035;BME280;71599;49.892;18.914;2024-01-30T02:27:05;100468.22;;;-3.80;90.55
82035;BME280;71599;49.892;18.914;2024-01-30T02:32:06;100469.03;;;-3.80;90.99
82035;BME280;71599;49.892;18.914;2024-01-30T02:37:09;100482.19;;;-3.96;92.21
82035;BME280;71599;49.892;18.914;2024-01-30T02:42:10;100473.03;;;-3.89;92.35
82035;BME280;71599;49.892;18.914;2024-01-30T02:47:11;100468.06;;;-3.85;91.07
82035;BME280;71599;49.892;18.914;2024-01-30T02:52:13;100471.44;;;-3.90;90.38
82035;BME280;71599;49.892;18.914;2024-01-30T02:57:14;100475.28;;;-3.86;90.92
82035;BME280;71599;49.892;18.914;2024-01-30T03:02:15;100477.03;;;-3.80;90.54
82035;BME280;71599;49.892;18.914;2024-01-30T03:07:17;100461.91;;;-3.86;89.46
82035;BME280;71599;49.892;18.914;2024-01-30T03:12:18;100460.50;;;-3.88;90.96
82035;BME280;71599;49.892;18.914;2024-01-30T03:17:19;100467.53;;;-3.94;90.24
82035;BME280;71599;49.892;18.914;2024-01-30T03:22:21;100452.56;;;-3.95;90.01
82035;BME280;71599;49.892;18.914;2024-01-30T03:27:22;100470.97;;;-4.05;91.10
82035;BME280;71599;49.892;18.914;2024-01-30T03:32:23;100464.59;;;-4.04;90.81
82035;BME280;71599;49.892;18.914;2024-01-30T03:37:25;100465.63;;;-4.05;90.22
82035;BME280;71599;49.892;18.914;2024-01-30T03:42:26;100466.28;;;-4.28;91.58
82035;BME280;71599;49.892;18.914;2024-01-30T03:47:27;100460.66;;;-4.20;91.92
82035;BME280;71599;49.892;18.914;2024-01-30T03:52:30;100456.72;;;-4.17;91.52
82035;BME280;71599;49.892;18.914;2024-01-30T03:57:30;100465.34;;;-4.15;92.88
82035;BME280;71599;49.892;18.914;2024-01-30T04:02:31;100453.78;;;-4.09;92.93
82035;BME280;71599;49.892;18.914;2024-01-30T04:07:34;100454.34;;;-4.07;92.79
82035;BME280;71599;49.892;18.914;2024-01-30T04:12:35;100459.84;;;-4.02;92.16
82035;BME280;71599;49.892;18.914;2024-01-30T04:17:36;100461.25;;;-3.99;92.12
82035;BME280;71599;49.892;18.914;2024-01-30T04:22:38;100470.38;;;-4.07;92.19
82035;BME280;71599;49.892;18.914;2024-01-30T04:27:39;100465.13;;;-4.14;92.02
82035;BME280;71599;49.892;18.914;2024-01-30T04:32:40;100470.16;;;-4.06;92.19
82035;BME280;71599;49.892;18.914;2024-01-30T04:37:43;100474.53;;;-4.11;92.34
82035;BME280;71599;49.892;18.914;2024-01-30T04:42:44;100465.03;;;-4.07;92.31
82035;BME280;71599;49.892;18.914;2024-01-30T04:47:45;100462.75;;;-4.03;90.78
82035;BME280;71599;49.892;18.914;2024-01-30T04:52:47;100460.00;;;-4.15;90.99
82035;BME280;71599;49.892;18.914;2024-01-30T04:57:48;100464.88;;;-4.12;91.10
82035;BME280;71599;49.892;18.914;2024-01-30T05:02:49;100468.75;;;-4.08;90.73
82035;BME280;71599;49.892;18.914;2024-01-30T05:07:52;100465.84;;;-4.07;90.83
82035;BME280;71599;49.892;18.914;2024-01-30T05:12:53;100461.56;;;-4.08;90.72
82035;BME280;71599;49.892;18.914;2024-01-30T05:17:53;100469.19;;;-4.11;90.00
82035;BME280;71599;49.892;18.914;2024-01-30T05:22:56;100472.09;;;-4.56;91.59
82035;BME280;71599;49.892;18.914;2024-01-30T05:27:57;100467.59;;;-4.37;92.59
82035;BME280;71599;49.892;18.914;2024-01-30T05:32:57;100465.59;;;-4.41;91.11
82035;BME280;71599;49.892;18.914;2024-01-30T05:38:00;100467.16;;;-4.52;91.81
82035;BME280;71599;49.892;18.914;2024-01-30T05:43:01;100454.16;;;-4.49;91.28
82035;BME280;71599;49.892;18.914;2024-01-30T05:48:02;100457.66;;;-4.48;91.05
82035;BME280;71599;49.892;18.914;2024-01-30T05:53:05;100463.41;;;-4.69;92.52
82035;BME280;71599;49.892;18.914;2024-01-30T05:58:06;100461.19;;;-4.54;93.06
82035;BME280;71599;49.892;18.914;2024-01-30T06:03:07;100451.28;;;-4.47;91.73
82035;BME280;71599;49.892;18.914;2024-01-30T06:08:10;100463.59;;;-4.46;90.73
82035;BME280;71599;49.892;18.914;2024-01-30T06:13:10;100459.50;;;-4.49;90.91
82035;BME280;71599;49.892;18.914;2024-01-30T06:18:12;100464.78;;;-4.42;91.29
82035;BME280;71599;49.892;18.914;2024-01-30T06:23:14;100468.00;;;-4.33;93.04
82035;BME280;71599;49.892;18.914;2024-01-30T06:28:15;100456.38;;;-4.21;92.41
82035;BME280;71599;49.892;18.914;2024-01-30T06:33:16;100463.91;;;-4.18;90.75
82035;BME280;71599;49.892;18.914;2024-01-30T06:38:18;100466.28;;;-4.28;91.99
82035;BME280;71599;49.892;18.914;2024-01-30T06:43:19;100473.91;;;-4.13;91.11
82035;BME280;71599;49.892;18.914;2024-01-30T06:48:20;100469.66;;;-3.96;89.91
82035;BME280;71599;49.892;18.914;2024-01-30T06:53:22;100468.28;;;-4.05;90.07
82035;BME280;71599;49.892;18.914;2024-01-30T06:58:23;100473.81;;;-3.22;90.03
82035;BME280;71599;49.892;18.914;2024-01-30T07:03:24;100468.56;;;-2.41;86.67
82035;BME280;71599;49.892;18.914;2024-01-30T07:08:27;100474.72;;;-1.53;81.98
82035;BME280;71599;49.892;18.914;2024-01-30T07:13:27;100471.34;;;-1.04;77.88
82035;BME280;71599;49.892;18.914;2024-01-30T07:18:28;100478.50;;;-0.93;75.63
82035;BME280;71599;49.892;18.914;2024-01-30T07:23:31;100469.88;;;-0.45;75.03
82035;BME280;71599;49.892;18.914;2024-01-30T07:28:32;100457.88;;;-0.20;73.88
82035;BME280;71599;49.892;18.914;2024-01-30T07:33:33;100467.28;;;-0.56;73.82
82035;BME280;71599;49.892;18.914;2024-01-30T07:38:35;100450.84;;;-0.43;75.62
82035;BME280;71599;49.892;18.914;2024-01-30T07:43:37;100453.22;;;-0.08;75.32
82035;BME280;71599;49.892;18.914;2024-01-30T07:48:38;100451.84;;;0.11;75.21
82035;BME280;71599;49.892;18.914;2024-01-30T07:53:41;100456.03;;;0.45;74.93
82035;BME280;71599;49.892;18.914;2024-01-30T07:58:42;100457.22;;;0.33;74.89
82035;BME280;71599;49.892;18.914;2024-01-30T08:03:43;100458.94;;;0.93;75.11
82035;BME280;71599;49.892;18.914;2024-01-30T08:08:45;100451.84;;;1.45;73.17
82035;BME280;71599;49.892;18.914;2024-01-30T08:13:46;100451.41;;;1.58;73.35
82035;BME280;71599;49.892;18.914;2024-01-30T08:18:47;100451.22;;;1.70;73.27
82035;BME280;71599;49.892;18.914;2024-01-30T08:23:49;100449.75;;;1.99;71.75
82035;BME280;71599;49.892;18.914;2024-01-30T08:28:50;100448.91;;;2.56;68.74
82035;BME280;71599;49.892;18.914;2024-01-30T08:33:51;100451.25;;;2.37;67.87
82035;BME280;71599;49.892;18.914;2024-01-30T08:38:54;100456.22;;;2.71;68.44
82035;BME280;71599;49.892;18.914;2024-01-30T08:43:54;100450.34;;;3.14;67.78
82035;BME280;71599;49.892;18.914;2024-01-30T08:48:55;100465.31;;;2.44;67.89
82035;BME280;71599;49.892;18.914;2024-01-30T08:53:58;100458.13;;;2.03;71.96
82035;BME280;71599;49.892;18.914;2024-01-30T08:58:59;100454.59;;;1.97;72.92
82035;BME280;71599;49.892;18.914;2024-01-30T09:04:00;100454.25;;;2.46;71.98
82035;BME280;71599;49.892;18.914;2024-01-30T09:09:02;100455.59;;;2.38;73.88
82035;BME280;71599;49.892;18.914;2024-01-30T09:14:03;100456.22;;;2.71;74.65
82035;BME280;71599;49.892;18.914;2024-01-30T09:19:04;100454.09;;;3.13;73.16
82035;BME280;71599;49.892;18.914;2024-01-30T09:24:07;100446.28;;;3.52;71.49
82035;BME280;71599;49.892;18.914;2024-01-30T09:29:08;100447.06;;;3.63;69.58
82035;BME280;71599;49.892;18.914;2024-01-30T09:34:09;100433.25;;;3.85;69.68
82035;BME280;71599;49.892;18.914;2024-01-30T09:39:11;100440.44;;;4.20;67.42
82035;BME280;71599;49.892;18.914;2024-01-30T09:44:13;100442.28;;;4.29;68.12
82035;BME280;71599;49.892;18.914;2024-01-30T09:49:15;100429.59;;;4.25;67.67
82035;BME280;71599;49.892;18.914;2024-01-30T09:54:18;100429.81;;;4.38;68.27
82035;BME280;71599;49.892;18.914;2024-01-30T09:59:20;100420.13;;;4.76;67.56
82035;BME280;71599;49.892;18.914;2024-01-30T10:04:21;100419.28;;;4.81;66.58
82035;BME280;71599;49.892;18.914;2024-01-30T10:09:23;100415.75;;;5.19;66.91
82035;BME280;71599;49.892;18.914;2024-01-30T10:14:24;100412.88;;;5.87;60.33
82035;BME280;71599;49.892;18.914;2024-01-30T10:19:25;100400.72;;;6.32;57.98
82035;BME280;71599;49.892;18.914;2024-01-30T10:24:28;100395.22;;;6.56;55.37
82035;BME280;71599;49.892;18.914;2024-01-30T10:29:29;100388.78;;;6.71;54.87
82035;BME280;71599;49.892;18.914;2024-01-30T10:34:30;100390.06;;;6.92;56.88
82035;BME280;71599;49.892;18.914;2024-01-30T10:39:38;100387.31;;;7.11;55.42
82035;BME280;71599;49.892;18.914;2024-01-30T10:44:45;100389.88;;;7.21;53.42
82035;BME280;71599;49.892;18.914;2024-01-30T10:49:48;100362.91;;;7.38;53.18
82035;BME280;71599;49.892;18.914;2024-01-30T10:54:51;100359.28;;;7.43;52.24
82035;BME280;71599;49.892;18.914;2024-01-30T10:59:54;100358.63;;;7.51;52.19
82035;BME280;71599;49.892;18.914;2024-01-30T11:04:57;100354.78;;;7.65;51.92
82035;BME280;71599;49.892;18.914;2024-01-30T11:10:04;100339.16;;;7.71;51.36
82035;BME280;71599;49.892;18.914;2024-01-30T11:15:06;100346.44;;;7.62;49.77
82035;BME280;71599;49.892;18.914;2024-01-30T11:20:10;100334.72;;;7.61;50.12
82035;BME280;71599;49.892;18.914;2024-01-30T11:25:13;100340.47;;;7.60;49.08
82035;BME280;71599;49.892;18.914;2024-01-30T11:30:21;100325.88;;;7.56;41.71
82035;BME280;71599;49.892;18.914;2024-01-30T11:35:22;100324.25;;;7.68;44.05
82035;BME280;71599;49.892;18.914;2024-01-30T11:40:27;100327.78;;;7.69;42.53
82035;BME280;71599;49.892;18.914;2024-01-30T11:45:28;100319.81;;;7.59;41.82
82035;BME280;71599;49.892;18.914;2024-01-30T11:50:29;100323.94;;;7.70;41.77
82035;BME280;71599;49.892;18.914;2024-01-30T11:55:33;100300.47;;;7.74;43.46
82035;BME280;71599;49.892;18.914;2024-01-30T12:00:34;100314.78;;;7.66;41.69
82035;BME280;71599;49.892;18.914;2024-01-30T12:05:35;100309.44;;;7.74;43.39
82035;BME280;71599;49.892;18.914;2024-01-30T12:10:37;100298.03;;;7.59;40.88
82035;BME280;71599;49.892;18.914;2024-01-30T12:15:38;100287.56;;;7.66;41.62
82035;BME280;71599;49.892;18.914;2024-01-30T12:20:39;100290.06;;;7.76;43.18
82035;BME280;71599;49.892;18.914;2024-01-30T12:25:42;100281.81;;;7.81;42.62
82035;BME280;71599;49.892;18.914;2024-01-30T12:30:43;100275.47;;;7.72;41.49
82035;BME280;71599;49.892;18.914;2024-01-30T12:35:45;100264.06;;;7.70;40.63
82035;BME280;71599;49.892;18.914;2024-01-30T12:40:48;100263.78;;;7.71;41.29
82035;BME280;71599;49.892;18.914;2024-01-30T12:45:49;100254.78;;;7.71;41.18
82035;BME280;71599;49.892;18.914;2024-01-30T12:50:50;100257.91;;;7.78;39.96
82035;BME280;71599;49.892;18.914;2024-01-30T12:55:53;100253.91;;;7.62;38.18
82035;BME280;71599;49.892;18.914;2024-01-30T13:00:54;100262.66;;;7.72;41.28
82035;BME280;71599;49.892;18.914;2024-01-30T13:05:55;100249.25;;;7.76;42.67
82035;BME280;71599;49.892;18.914;2024-01-30T13:10:57;100251.97;;;7.76;41.93
82035;BME280;71599;49.892;18.914;2024-01-30T13:15:58;100257.00;;;7.83;42.77
82035;BME280;71599;49.892;18.914;2024-01-30T13:21:00;100248.47;;;7.62;40.89
82035;BME280;71599;49.892;18.914;2024-01-30T13:26:02;100259.34;;;7.62;41.39
82035;BME280;71599;49.892;18.914;2024-01-30T13:31:03;100254.84;;;7.57;42.45
82035;BME280;71599;49.892;18.914;2024-01-30T13:36:05;100245.34;;;7.55;40.48
82035;BME280;71599;49.892;18.914;2024-01-30T13:41:07;100250.38;;;7.48;40.72
82035;BME280;71599;49.892;18.914;2024-01-30T13:46:08;100250.28;;;7.53;43.46
82035;BME280;71599;49.892;18.914;2024-01-30T13:51:09;100250.91;;;7.36;39.42
82035;BME280;71599;49.892;18.914;2024-01-30T13:56:12;100250.06;;;7.22;41.81
82035;BME280;71599;49.892;18.914;2024-01-30T14:01:13;100239.53;;;7.20;43.89
82035;BME280;71599;49.892;18.914;2024-01-30T14:06:14;100236.50;;;7.08;41.05
82035;BME280;71599;49.892;18.914;2024-01-30T14:11:16;100234.59;;;7.09;40.50
82035;BME280;71599;49.892;18.914;2024-01-30T14:16:17;100249.25;;;6.94;41.99
82035;BME280;71599;49.892;18.914;2024-01-30T14:21:19;100236.06;;;6.87;43.39
82035;BME280;71599;49.892;18.914;2024-01-30T14:26:21;100225.75;;;6.71;42.56
82035;BME280;71599;49.892;18.914;2024-01-30T14:31:22;100233.19;;;6.65;42.78
82035;BME280;71599;49.892;18.914;2024-01-30T14:36:24;100231.38;;;6.42;42.72
82035;BME280;71599;49.892;18.914;2024-01-30T14:41:26;100230.75;;;6.31;43.08
82035;BME280;71599;49.892;18.914;2024-01-30T14:46:27;100234.69;;;6.20;43.51
82035;BME280;71599;49.892;18.914;2024-01-30T14:51:28;100244.09;;;6.09;43.37
82035;BME280;71599;49.892;18.914;2024-01-30T14:56:30;100241.22;;;6.00;44.86
82035;BME280;71599;49.892;18.914;2024-01-30T15:01:32;100237.13;;;5.84;44.12
82035;BME280;71599;49.892;18.914;2024-01-30T15:06:33;100231.59;;;5.70;45.56
82035;BME280;71599;49.892;18.914;2024-01-30T15:11:35;100235.56;;;5.59;46.22
82035;BME280;71599;49.892;18.914;2024-01-30T15:16:36;100230.28;;;5.49;46.27
82035;BME280;71599;49.892;18.914;2024-01-30T15:21:38;100220.00;;;5.22;46.67
82035;BME280;71599;49.892;18.914;2024-01-30T15:26:40;100240.00;;;5.26;47.35
82035;BME280;71599;49.892;18.914;2024-01-30T15:31:41;100237.22;;;5.08;46.79
82035;BME280;71599;49.892;18.914;2024-01-30T15:36:42;100240.19;;;4.87;47.12
82035;BME280;71599;49.892;18.914;2024-01-30T15:41:45;100242.78;;;4.69;47.42
82035;BME280;71599;49.892;18.914;2024-01-30T15:46:46;100238.34;;;4.49;47.98
82035;BME280;71599;49.892;18.914;2024-01-30T15:51:47;100231.69;;;4.36;48.07
82035;BME280;71599;49.892;18.914;2024-01-30T15:56:49;100231.78;;;4.26;48.42
82035;BME280;71599;49.892;18.914;2024-01-30T16:01:50;100230.47;;;4.19;49.87
82035;BME280;71599;49.892;18.914;2024-01-30T16:06:53;100229.97;;;4.11;49.36
82035;BME280;71599;49.892;18.914;2024-01-30T16:11:56;100240.59;;;4.03;50.33
82035;BME280;71599;49.892;18.914;2024-01-30T16:16:57;100229.06;;;3.87;50.48
82035;BME280;71599;49.892;18.914;2024-01-30T16:21:58;100221.84;;;3.62;50.51
82035;BME280;71599;49.892;18.914;2024-01-30T16:27:00;100232.13;;;3.65;50.41
82035;BME280;71599;49.892;18.914;2024-01-30T16:32:01;100234.84;;;3.65;51.07
82035;BME280;71599;49.892;18.914;2024-01-30T16:37:02;100241.59;;;3.63;50.59
82035;BME280;71599;49.892;18.914;2024-01-30T16:42:05;100242.47;;;3.53;51.40
82035;BME280;71599;49.892;18.914;2024-01-30T16:47:06;100247.59;;;3.50;51.21
82035;BME280;71599;49.892;18.914;2024-01-30T16:52:07;100244.91;;;3.45;51.46
82035;BME280;71599;49.892;18.914;2024-01-30T16:57:09;100249.28;;;3.36;51.26
82035;BME280;71599;49.892;18.914;2024-01-30T17:02:10;100251.19;;;3.35;52.16
82035;BME280;71599;49.892;18.914;2024-01-30T17:07:11;100251.75;;;3.22;51.49
82035;BME280;71599;49.892;18.914;2024-01-30T17:12:14;100239.59;;;3.19;52.20
82035;BME280;71599;49.892;18.914;2024-01-30T17:17:15;100232.38;;;3.00;53.15
82035;BME280;71599;49.892;18.914;2024-01-30T17:22:16;100230.50;;;2.85;53.70
82035;BME280;71599;49.892;18.914;2024-01-30T17:27:18;100231.34;;;2.60;54.57
82035;BME280;71599;49.892;18.914;2024-01-30T17:32:19;100234.31;;;2.54;55.01
82035;BME280;71599;49.892;18.914;2024-01-30T17:37:20;100235.69;;;2.41;54.92
82035;BME280;71599;49.892;18.914;2024-01-30T17:42:23;100234.88;;;2.30;55.34
82035;BME280;71599;49.892;18.914;2024-01-30T17:47:24;100244.59;;;2.31;54.60
82035;BME280;71599;49.892;18.914;2024-01-30T17:52:25;100238.38;;;2.26;54.80
82035;BME280;71599;49.892;18.914;2024-01-30T17:57:27;100232.44;;;2.29;54.69
82035;BME280;71599;49.892;18.914;2024-01-30T18:02:28;100228.13;;;2.13;55.63
82035;BME280;71599;49.892;18.914;2024-01-30T18:07:29;100230.25;;;2.11;55.77
82035;BME280;71599;49.892;18.914;2024-01-30T18:12:31;100228.63;;;1.99;56.16
82035;BME280;71599;49.892;18.914;2024-01-30T18:17:32;100238.59;;;1.89;56.52
82035;BME280;71599;49.892;18.914;2024-01-30T18:22:33;100241.25;;;1.74;56.79
82035;BME280;71599;49.892;18.914;2024-01-30T18:27:36;100228.56;;;1.69;57.24
82035;BME280;71599;49.892;18.914;2024-01-30T18:32:37;100231.78;;;1.66;58.47
82035;BME280;71599;49.892;18.914;2024-01-30T18:37:38;100236.41;;;1.65;57.08
82035;BME280;71599;49.892;18.914;2024-01-30T18:42:40;100233.41;;;1.62;56.95
82035;BME280;71599;49.892;18.914;2024-01-30T18:47:42;100228.25;;;1.55;56.96
82035;BME280;71599;49.892;18.914;2024-01-30T18:52:42;100231.50;;;1.52;56.72
82035;BME280;71599;49.892;18.914;2024-01-30T18:57:45;100233.06;;;1.43;57.03
82035;BME280;71599;49.892;18.914;2024-01-30T19:02:46;100245.72;;;1.43;57.68
82035;BME280;71599;49.892;18.914;2024-01-30T19:07:47;100237.34;;;1.34;57.99
82035;BME280;71599;49.892;18.914;2024-01-30T19:12:50;100240.50;;;1.16;58.73
82035;BME280;71599;49.892;18.914;2024-01-30T19:17:51;100242.59;;;1.04;59.49
82035;BME280;71599;49.892;18.914;2024-01-30T19:22:52;100246.84;;;0.95;60.10
82035;BME280;71599;49.892;18.914;2024-01-30T19:27:54;100246.53;;;0.86;60.38
82035;BME280;71599;49.892;18.914;2024-01-30T19:32:55;100245.91;;;0.74;61.11
82035;BME280;71599;49.892;18.914;2024-01-30T19:37:57;100251.75;;;0.66;62.11
82035;BME280;71599;49.892;18.914;2024-01-30T19:42:59;100252.22;;;0.58;62.40
82035;BME280;71599;49.892;18.914;2024-01-30T19:48:00;100247.56;;;0.43;63.51
82035;BME280;71599;49.892;18.914;2024-01-30T19:53:01;100246.19;;;0.40;63.52
82035;BME280;71599;49.892;18.914;2024-01-30T19:58:04;100251.53;;;0.35;64.35
82035;BME280;71599;49.892;18.914;2024-01-30T20:03:05;100249.09;;;0.34;64.08
82035;BME280;71599;49.892;18.914;2024-01-30T20:08:06;100256.66;;;0.37;63.80
82035;BME280;71599;49.892;18.914;2024-01-30T20:13:08;100250.16;;;0.33;64.11
82035;BME280;71599;49.892;18.914;2024-01-30T20:18:09;100246.59;;;0.27;64.89
82035;BME280;71599;49.892;18.914;2024-01-30T20:23:10;100239.31;;;0.23;64.70
82035;BME280;71599;49.892;18.914;2024-01-30T20:28:13;100232.72;;;0.09;65.47
82035;BME280;71599;49.892;18.914;2024-01-30T20:33:14;100246.97;;;0.09;65.48
82035;BME280;71599;49.892;18.914;2024-01-30T20:38:15;100248.84;;;0.09;65.26
82035;BME280;71599;49.892;18.914;2024-01-30T20:43:18;100238.88;;;0.04;65.63
82035;BME280;71599;49.892;18.914;2024-01-30T20:48:19;100242.66;;;0.08;65.92
82035;BME280;71599;49.892;18.914;2024-01-30T20:53:20;100245.34;;;0.08;66.39
82035;BME280;71599;49.892;18.914;2024-01-30T20:58:22;100247.94;;;-0.02;66.72
82035;BME280;71599;49.892;18.914;2024-01-30T21:03:23;100234.59;;;0.08;66.66
82035;BME280;71599;49.892;18.914;2024-01-30T21:08:24;100242.88;;;0.01;66.46
82035;BME280;71599;49.892;18.914;2024-01-30T21:13:27;100238.25;;;-0.03;66.67
82035;BME280;71599;49.892;18.914;2024-01-30T21:18:28;100232.88;;;-0.03;66.44
82035;BME280;71599;49.892;18.914;2024-01-30T21:23:29;100229.44;;;0.01;66.47
82035;BME280;71599;49.892;18.914;2024-01-30T21:28:31;100223.81;;;0.03;66.74
82035;BME280;71599;49.892;18.914;2024-01-30T21:33:33;100226.69;;;-0.04;66.91
82035;BME280;71599;49.892;18.914;2024-01-30T21:38:34;100223.91;;;-0.14;66.92
82035;BME280;71599;49.892;18.914;2024-01-30T21:43:36;100208.25;;;-0.22;66.29
82035;BME280;71599;49.892;18.914;2024-01-30T21:48:37;100216.59;;;-0.23;67.44
82035;BME280;71599;49.892;18.914;2024-01-30T21:53:38;100213.53;;;-0.32;67.75
82035;BME280;71599;49.892;18.914;2024-01-30T21:58:41;100204.91;;;-0.34;67.72
82035;BME280;71599;49.892;18.914;2024-01-30T22:03:42;100204.66;;;-0.32;67.84
82035;BME280;71599;49.892;18.914;2024-01-30T22:08:44;100202.16;;;-0.39;68.02
82035;BME280;71599;49.892;18.914;2024-01-30T22:13:46;100212.84;;;-0.44;67.12
82035;BME280;71599;49.892;18.914;2024-01-30T22:18:47;100216.03;;;-0.47;67.91
82035;BME280;71599;49.892;18.914;2024-01-30T22:23:48;100222.69;;;-0.55;68.48
82035;BME280;71599;49.892;18.914;2024-01-30T22:28:51;100220.47;;;-0.58;68.50
82035;BME280;71599;49.892;18.914;2024-01-30T22:33:52;100231.16;;;-0.63;68.43
82035;BME280;71599;49.892;18.914;2024-01-30T22:38:54;100226.00;;;-0.69;67.99
82035;BME280;71599;49.892;18.914;2024-01-30T22:43:57;100228.44;;;-0.68;67.90
82035;BME280;71599;49.892;18.914;2024-01-30T22:48:58;100227.84;;;-0.70;68.61
82035;BME280;71599;49.892;18.914;2024-01-30T22:53:59;100235.63;;;-0.73;68.93
82035;BME280;71599;49.892;18.914;2024-01-30T22:59:01;100235.03;;;-0.75;68.52
82035;BME280;71599;49.892;18.914;2024-01-30T23:04:02;100240.53;;;-0.65;67.84
82035;BME280;71599;49.892;18.914;2024-01-30T23:09:03;100237.84;;;-0.65;67.18
82035;BME280;71599;49.892;18.914;2024-01-30T23:14:06;100238.94;;;-0.66;67.95
82035;BME280;71599;49.892;18.914;2024-01-30T23:19:07;100232.81;;;-0.62;66.97
82035;BME280;71599;49.892;18.914;2024-01-30T23:24:08;100230.34;;;-0.63;66.97
82035;BME280;71599;49.892;18.914;2024-01-30T23:29:10;100236.78;;;-0.64;67.71
82035;BME280;71599;49.892;18.914;2024-01-30T23:34:11;100237.53;;;-0.69;67.18
82035;BME280;71599;49.892;18.914;2024-01-30T23:39:12;100242.84;;;-0.74;68.59
82035;BME280;71599;49.892;18.914;2024-01-30T23:44:15;100241.84;;;-0.68;68.53
82035;BME280;71599;49.892;18.914;2024-01-30T23:49:16;100237.31;;;-0.67;69.35
82035;BME280;71599;49.892;18.914;2024-01-30T23:54:17;100239.22;;;-0.63;69.30
82035;BME280;71599;49.892;18.914;2024-01-30T23:59:19;100228.63;;;-0.74;69.44
